sensor_id;sensor_type;location;lat;lon;timestamp;pressure;altitude;pressure_sealevel;temperature
29701;BMP280;57917;51.380;-0.176;2022-08-18T00:03:21;101228.53;;;19.65
29701;BMP280;57917;51.380;-0.176;2022-08-18T00:09:29;101233.47;;;19.63
29701;BMP280;57917;51.380;-0.176;2022-08-18T00:15:19;101229.94;;;19.71
29701;BMP280;57917;51.380;-0.176;2022-08-18T00:21:11;101220.78;;;19.72
29701;BMP280;57917;51.380;-0.176;2022-08-18T00:27:10;101226.09;;;19.52
29701;BMP280;57917;51.380;-0.176;2022-08-18T00:33:03;101224.00;;;19.57
29701;BMP280;57917;51.380;-0.176;2022-08-18T00:38:50;101224.84;;;19.49
29701;BMP280;57917;51.380;-0.176;2022-08-18T00:44:40;101227.16;;;19.59
29701;BMP280;57917;51.380;-0.176;2022-08-18T00:50:44;101222.28;;;19.53
29701;BMP280;57917;51.380;-0.176;2022-08-18T00:56:48;101224.47;;;19.22
29701;BMP280;57917;51.380;-0.176;2022-08-18T01:02:42;101216.13;;;19.23
29701;BMP280;57917;51.380;-0.176;2022-08-18T01:08:37;101206.84;;;19.12
29701;BMP280;57917;51.380;-0.176;2022-08-18T01:14:36;101205.09;;;19.16
29701;BMP280;57917;51.380;-0.176;2022-08-18T01:27:01;101202.25;;;19.50
29701;BMP280;57917;51.380;-0.176;2022-08-18T01:32:55;101198.38;;;19.60
29701;BMP280;57917;51.380;-0.176;2022-08-18T01:39:14;101202.94;;;19.88
29701;BMP280;57917;51.380;-0.176;2022-08-18T01:45:30;101200.47;;;19.54
29701;BMP280;57917;51.380;-0.176;2022-08-18T01:51:34;101208.44;;;19.92
29701;BMP280;57917;51.380;-0.176;2022-08-18T01:57:29;101204.34;;;19.86
29701;BMP280;57917;51.380;-0.176;2022-08-18T02:03:28;101203.06;;;19.71
29701;BMP280;57917;51.380;-0.176;2022-08-18T02:09:19;101207.09;;;19.77
29701;BMP280;57917;51.380;-0.176;2022-08-18T02:15:11;101210.16;;;19.96
29701;BMP280;57917;51.380;-0.176;2022-08-18T02:21:14;101199.91;;;19.69
29701;BMP280;57917;51.380;-0.176;2022-08-18T02:27:21;101196.59;;;19.72
29701;BMP280;57917;51.380;-0.176;2022-08-18T02:33:13;101192.03;;;19.64
29701;BMP280;57917;51.380;-0.176;2022-08-18T02:39:03;101198.13;;;19.73
29701;BMP280;57917;51.380;-0.176;2022-08-18T02:44:50;101205.81;;;19.83
29701;BMP280;57917;51.380;-0.176;2022-08-18T02:50:43;101196.50;;;19.60
29701;BMP280;57917;51.380;-0.176;2022-08-18T02:56:39;101199.09;;;19.69
29701;BMP280;57917;51.380;-0.176;2022-08-18T03:02:31;101196.13;;;19.70
29701;BMP280;57917;51.380;-0.176;2022-08-18T03:08:19;101195.19;;;20.07
29701;BMP280;57917;51.380;-0.176;2022-08-18T03:14:06;101193.91;;;19.93
29701;BMP280;57917;51.380;-0.176;2022-08-18T03:19:57;101200.19;;;19.76
29701;BMP280;57917;51.380;-0.176;2022-08-18T03:25:50;101183.41;;;19.79
29701;BMP280;57917;51.380;-0.176;2022-08-18T03:31:42;101203.22;;;19.75
29701;BMP280;57917;51.380;-0.176;2022-08-18T03:37:30;101197.69;;;19.71
29701;BMP280;57917;51.380;-0.176;2022-08-18T03:43:17;101201.88;;;19.60
29701;BMP280;57917;51.380;-0.176;2022-08-18T03:49:25;101189.56;;;19.80
29701;BMP280;57917;51.380;-0.176;2022-08-18T03:55:13;101198.31;;;19.97
29701;BMP280;57917;51.380;-0.176;2022-08-18T04:01:00;101186.66;;;19.64
29701;BMP280;57917;51.380;-0.176;2022-08-18T04:06:53;101185.38;;;19.91
29701;BMP280;57917;51.380;-0.176;2022-08-18T04:12:40;101190.81;;;19.82
29701;BMP280;57917;51.380;-0.176;2022-08-18T04:18:28;101191.22;;;19.43
29701;BMP280;57917;51.380;-0.176;2022-08-18T04:24:17;101184.25;;;19.51
29701;BMP280;57917;51.380;-0.176;2022-08-18T04:30:05;101193.16;;;19.34
29701;BMP280;57917;51.380;-0.176;2022-08-18T04:35:53;101182.97;;;19.69
29701;BMP280;57917;51.380;-0.176;2022-08-18T04:41:42;101190.75;;;19.70
29701;BMP280;57917;51.380;-0.176;2022-08-18T04:47:29;101189.69;;;19.83
29701;BMP280;57917;51.380;-0.176;2022-08-18T04:53:17;101204.34;;;19.86
29701;BMP280;57917;51.380;-0.176;2022-08-18T04:59:22;101191.59;;;19.83
29701;BMP280;57917;51.380;-0.176;2022-08-18T05:05:10;101198.47;;;19.92
29701;BMP280;57917;51.380;-0.176;2022-08-18T05:10:57;101188.59;;;19.84
29701;BMP280;57917;51.380;-0.176;2022-08-18T05:16:52;101190.47;;;20.04
29701;BMP280;57917;51.380;-0.176;2022-08-18T05:22:42;101185.09;;;20.04
29701;BMP280;57917;51.380;-0.176;2022-08-18T05:28:30;101195.31;;;19.90
29701;BMP280;57917;51.380;-0.176;2022-08-18T05:34:22;101190.09;;;20.14
29701;BMP280;57917;51.380;-0.176;2022-08-18T05:40:09;101193.81;;;20.22
29701;BMP280;57917;51.380;-0.176;2022-08-18T05:45:58;101181.81;;;20.31
29701;BMP280;57917;51.380;-0.176;2022-08-18T05:52:02;101184.91;;;20.42
29701;BMP280;57917;51.380;-0.176;2022-08-18T05:57:58;101185.81;;;20.46
29701;BMP280;57917;51.380;-0.176;2022-08-18T06:10:24;101171.19;;;20.67
29701;BMP280;57917;51.380;-0.176;2022-08-18T06:22:42;101169.19;;;21.00
29701;BMP280;57917;51.380;-0.176;2022-08-18T06:42:44;101150.56;;;21.19
29701;BMP280;57917;51.380;-0.176;2022-08-18T06:55:44;101164.53;;;21.37
29701;BMP280;57917;51.380;-0.176;2022-08-18T07:01:34;101164.69;;;21.40
29701;BMP280;57917;51.380;-0.176;2022-08-18T07:14:51;101164.81;;;21.71
29701;BMP280;57917;51.380;-0.176;2022-08-18T07:21:00;101167.06;;;21.69
29701;BMP280;57917;51.380;-0.176;2022-08-18T07:49:57;101190.56;;;22.40
29701;BMP280;57917;51.380;-0.176;2022-08-18T07:56:31;101171.78;;;23.09
29701;BMP280;57917;51.380;-0.176;2022-08-18T08:17:24;101199.69;;;22.82
29701;BMP280;57917;51.380;-0.176;2022-08-18T08:48:22;101195.31;;;22.31
29701;BMP280;57917;51.380;-0.176;2022-08-18T09:50:38;101178.63;;;24.17
29701;BMP280;57917;51.380;-0.176;2022-08-18T10:03:33;101160.53;;;25.91
29701;BMP280;57917;51.380;-0.176;2022-08-18T10:09:40;101145.66;;;26.18
29701;BMP280;57917;51.380;-0.176;2022-08-18T10:16:20;101139.25;;;26.00
29701;BMP280;57917;51.380;-0.176;2022-08-18T10:22:43;101139.22;;;26.40
29701;BMP280;57917;51.380;-0.176;2022-08-18T10:34:52;101122.44;;;26.92
29701;BMP280;57917;51.380;-0.176;2022-08-18T10:40:41;101117.59;;;27.60
29701;BMP280;57917;51.380;-0.176;2022-08-18T10:46:40;101110.59;;;27.63
29701;BMP280;57917;51.380;-0.176;2022-08-18T11:20:26;101121.50;;;28.22
29701;BMP280;57917;51.380;-0.176;2022-08-18T11:27:19;101112.13;;;27.39
29701;BMP280;57917;51.380;-0.176;2022-08-18T11:34:05;101100.31;;;26.90
29701;BMP280;57917;51.380;-0.176;2022-08-18T11:40:41;101096.63;;;27.61
29701;BMP280;57917;51.380;-0.176;2022-08-18T11:47:27;101081.06;;;28.00
29701;BMP280;57917;51.380;-0.176;2022-08-18T12:08:20;101053.66;;;28.59
29701;BMP280;57917;51.380;-0.176;2022-08-18T12:15:44;101061.31;;;28.82
29701;BMP280;57917;51.380;-0.176;2022-08-18T12:22:21;101058.09;;;28.01
29701;BMP280;57917;51.380;-0.176;2022-08-18T12:28:19;101054.84;;;28.55
29701;BMP280;57917;51.380;-0.176;2022-08-18T12:34:43;101040.09;;;28.45
29701;BMP280;57917;51.380;-0.176;2022-08-18T12:41:31;101028.16;;;28.01
29701;BMP280;57917;51.380;-0.176;2022-08-18T12:47:51;101029.75;;;27.81
29701;BMP280;57917;51.380;-0.176;2022-08-18T12:53:47;101025.50;;;27.55
29701;BMP280;57917;51.380;-0.176;2022-08-18T12:59:48;101020.44;;;27.61
29701;BMP280;57917;51.380;-0.176;2022-08-18T13:06:13;101025.09;;;27.85
29701;BMP280;57917;51.380;-0.176;2022-08-18T13:12:50;101018.09;;;27.84
29701;BMP280;57917;51.380;-0.176;2022-08-18T13:18:52;101022.28;;;28.27
29701;BMP280;57917;51.380;-0.176;2022-08-18T13:46:58;101000.09;;;28.28
29701;BMP280;57917;51.380;-0.176;2022-08-18T14:01:43;101012.25;;;27.75
29701;BMP280;57917;51.380;-0.176;2022-08-18T14:07:46;101001.41;;;27.82
29701;BMP280;57917;51.380;-0.176;2022-08-18T14:13:39;101002.09;;;28.07
29701;BMP280;57917;51.380;-0.176;2022-08-18T14:19:44;101002.53;;;27.88
29701;BMP280;57917;51.380;-0.176;2022-08-18T14:34:06;101001.75;;;27.91
29701;BMP280;57917;51.380;-0.176;2022-08-18T14:39:57;100997.44;;;28.07
29701;BMP280;57917;51.380;-0.176;2022-08-18T15:27:38;100969.91;;;27.63
29701;BMP280;57917;51.380;-0.176;2022-08-18T15:34:06;100967.59;;;27.44
29701;BMP280;57917;51.380;-0.176;2022-08-18T15:40:59;100972.63;;;27.18
29701;BMP280;57917;51.380;-0.176;2022-08-18T15:47:23;100959.06;;;27.39
29701;BMP280;57917;51.380;-0.176;2022-08-18T16:00:02;100970.31;;;27.23
29701;BMP280;57917;51.380;-0.176;2022-08-18T16:06:50;100981.13;;;26.92
29701;BMP280;57917;51.380;-0.176;2022-08-18T16:50:26;100960.88;;;26.61
29701;BMP280;57917;51.380;-0.176;2022-08-18T16:56:20;100950.38;;;26.60
29701;BMP280;57917;51.380;-0.176;2022-08-18T17:04:08;100959.69;;;26.52
29701;BMP280;57917;51.380;-0.176;2022-08-18T17:46:18;100943.75;;;25.75
29701;BMP280;57917;51.380;-0.176;2022-08-18T17:53:20;100962.25;;;25.66
29701;BMP280;57917;51.380;-0.176;2022-08-18T18:22:27;100967.13;;;25.00
29701;BMP280;57917;51.380;-0.176;2022-08-18T18:28:29;100967.91;;;25.04
29701;BMP280;57917;51.380;-0.176;2022-08-18T18:35:00;100969.91;;;24.77
29701;BMP280;57917;51.380;-0.176;2022-08-18T19:18:30;100998.59;;;23.52
29701;BMP280;57917;51.380;-0.176;2022-08-18T21:09:28;101045.78;;;21.69
29701;BMP280;57917;51.380;-0.176;2022-08-18T23:32:00;101058.69;;;20.97
